Time;durP1;ratioP1;P1;durP2;ratioP2;P2;SDS_P1;SDS_P2;PMS_P1;PMS_P2;Temp;Humidity;BMP_temperature;BMP_pressure;BME280_temperature;BME280_humidity;BME280_pressure;Samples;Min_cycle;Max_cycle;Signal;HPM_P1;HPM_P2
2023/07/30 00:02:27;;;;;;;4.95;2.55;;;;;;;-144.32;100.00;68061.97;10196731;28;20043;-78
2023/07/30 00:07:27;;;;;;;4.03;2.55;;;;;;;-144.32;100.00;68061.97;10200625;29;20039;-78
2023/07/30 00:12:28;;;;;;;3.95;2.40;;;;;;;-144.32;100.00;68061.97;10198316;28;20086;-80
2023/07/30 00:17:28;;;;;;;3.20;2.28;;;;;;;-144.32;100.00;68061.97;10194756;28;20056;-78
2023/07/30 00:22:29;;;;;;;2.58;2.33;;;;;;;-144.32;100.00;68061.97;10200650;29;20040;-80
2023/07/30 00:27:29;;;;;;;3.90;2.70;;;;;;;-144.32;100.00;68061.97;10226590;29;20054;-78
2023/07/30 00:32:30;;;;;;;3.80;2.67;;;;;;;-144.32;100.00;68061.97;10182223;29;20055;-78
2023/07/30 00:37:31;;;;;;;3.17;2.42;;;;;;;-144.32;100.00;68061.97;10195552;28;20040;-78
2023/07/30 00:42:31;;;;;;;2.47;2.28;;;;;;;-144.32;100.00;68061.97;10194939;28;20043;-78
2023/07/30 00:47:32;;;;;;;3.90;2.80;;;;;;;-144.32;100.00;68061.97;10193862;29;20048;-78
2023/07/30 00:52:33;;;;;;;4.32;2.42;;;;;;;-144.32;100.00;68061.97;10184037;29;20059;-79
2023/07/30 00:57:36;;;;;;;3.35;2.40;;;;;;;-144.32;100.00;68061.97;10197672;29;20126;-79
2023/07/30 01:02:37;;;;;;;3.20;2.90;;;;;;;-144.32;100.00;68061.97;10202604;28;20043;-79
2023/07/30 01:07:38;;;;;;;5.82;3.10;;;;;;;-144.32;100.00;68061.97;10196794;28;20047;-81
2023/07/30 01:12:40;;;;;;;3.80;3.05;;;;;;;-144.32;100.00;68061.97;10181732;28;20055;-78
2023/07/30 01:17:41;;;;;;;3.78;2.78;;;;;;;-144.32;100.00;68061.97;10198422;29;20055;-79
2023/07/30 01:22:41;;;;;;;4.10;3.05;;;;;;;-144.32;100.00;68061.97;10197524;28;20055;-79
2023/07/30 01:27:49;;;;;;;3.63;3.22;;;;;;;-144.32;100.00;68061.97;10189485;28;20491;-79
2023/07/30 01:32:51;;;;;;;3.70;3.30;;;;;;;-144.32;100.00;68061.97;10205348;28;20048;-80
2023/07/30 01:37:52;;;;;;;4.68;3.25;;;;;;;-144.32;100.00;68061.97;10185926;29;20052;-80
2023/07/30 01:42:53;;;;;;;5.93;3.70;;;;;;;-144.32;100.00;68061.97;10208106;28;20089;-79
2023/07/30 01:47:53;;;;;;;4.60;3.38;;;;;;;-144.32;100.00;68061.97;10188836;28;20480;-80
2023/07/30 01:52:54;;;;;;;3.28;2.78;;;;;;;-144.32;100.00;68061.97;10208826;28;20059;-80
2023/07/30 01:57:54;;;;;;;3.90;3.50;;;;;;;-144.32;100.00;68061.97;10224419;28;20055;-80
2023/07/30 02:02:55;;;;;;;4.35;3.40;;;;;;;-144.32;100.00;68061.97;10192254;28;20051;-78
2023/07/30 02:07:56;;;;;;;5.20;3.50;;;;;;;-144.32;100.00;68061.97;10208510;29;20135;-78
2023/07/30 02:12:56;;;;;;;4.90;3.72;;;;;;;-144.32;100.00;68061.97;10203681;28;20047;-78
2023/07/30 02:17:57;;;;;;;5.85;3.50;;;;;;;-144.32;100.00;68061.97;10185248;29;20074;-78
2023/07/30 02:22:57;;;;;;;5.80;4.10;;;;;;;-144.32;100.00;68061.97;10205285;28;20050;-79
2023/07/30 02:27:59;;;;;;;4.05;3.65;;;;;;;-144.32;100.00;68061.97;10208900;28;20039;-79
2023/07/30 02:32:59;;;;;;;4.90;3.43;;;;;;;-144.32;100.00;68061.97;10227129;29;20268;-80
2023/07/30 02:38:00;;;;;;;6.40;4.00;;;;;;;-144.32;100.00;68061.97;10230570;29;20043;-81
2023/07/30 02:43:01;;;;;;;4.45;3.40;;;;;;;-144.32;100.00;68061.97;10208670;28;20072;-79
2023/07/30 02:48:01;;;;;;;5.15;4.00;;;;;;;-144.32;100.00;68061.97;10206494;28;20035;-80
2023/07/30 02:53:02;;;;;;;4.38;3.90;;;;;;;-144.32;100.00;68061.97;10208408;28;20055;-80
2023/07/30 02:58:03;;;;;;;4.45;3.70;;;;;;;-144.32;100.00;68061.97;10185936;28;20048;-81
2023/07/30 03:03:04;;;;;;;4.80;4.30;;;;;;;-144.32;100.00;68061.97;10210087;29;20075;-80
2023/07/30 03:08:05;;;;;;;4.18;3.53;;;;;;;-144.32;100.00;68061.97;10204423;29;20459;-79
2023/07/30 03:13:05;;;;;;;4.80;4.00;;;;;;;-144.32;100.00;68061.97;10200328;28;20046;-79
2023/07/30 03:18:06;;;;;;;4.57;3.65;;;;;;;-144.32;100.00;68061.97;10208078;29;20050;-81
2023/07/30 03:23:06;;;;;;;6.32;3.92;;;;;;;-144.32;100.00;68061.97;10188531;29;20055;-80
2023/07/30 03:28:07;;;;;;;4.75;3.50;;;;;;;-144.32;100.00;68061.97;10216962;28;20052;-82
2023/07/30 03:33:07;;;;;;;5.15;4.03;;;;;;;-144.32;100.00;68061.97;10213217;29;20143;-81
2023/07/30 03:38:08;;;;;;;5.28;3.72;;;;;;;-144.32;100.00;68061.97;10207752;28;20058;-80
2023/07/30 03:43:08;;;;;;;4.88;3.70;;;;;;;-144.32;100.00;68061.97;10199604;29;20400;-79
2023/07/30 03:48:09;;;;;;;3.97;3.58;;;;;;;-144.32;100.00;68061.97;10207125;29;20046;-80
2023/07/30 03:53:09;;;;;;;6.47;3.70;;;;;;;-144.32;100.00;68061.97;10187989;28;20048;-81
2023/07/30 03:58:10;;;;;;;4.25;3.78;;;;;;;-144.32;100.00;68061.97;10203373;29;20071;-80
2023/07/30 04:03:10;;;;;;;4.25;3.53;;;;;;;-144.32;100.00;68061.97;10208653;28;20055;-78
2023/07/30 04:08:12;;;;;;;5.22;3.88;;;;;;;-144.32;100.00;68061.97;10210015;29;20040;-81
2023/07/30 04:13:13;;;;;;;6.85;4.00;;;;;;;-144.32;100.00;68061.97;10210953;29;20047;-82
2023/07/30 04:18:14;;;;;;;5.75;3.47;;;;;;;-144.32;100.00;68061.97;10216047;28;20050;-83
2023/07/30 04:23:15;;;;;;;4.55;3.72;;;;;;;-144.32;100.00;68061.97;10194917;29;20054;-82
2023/07/30 04:28:16;;;;;;;4.18;3.78;;;;;;;-144.32;100.00;68061.97;10169182;28;20044;-80
2023/07/30 04:33:17;;;;;;;4.30;3.40;;;;;;;-144.32;100.00;68061.97;10187901;28;20039;-82
2023/07/30 04:38:18;;;;;;;4.72;3.60;;;;;;;-144.32;100.00;68061.97;10185448;29;20071;-80
2023/07/30 04:43:19;;;;;;;5.10;4.03;;;;;;;-144.32;100.00;68061.97;10183536;29;20035;-82
2023/07/30 04:48:25;;;;;;;4.85;4.32;;;;;;;-144.32;100.00;68061.97;10191880;29;20111;-81
2023/07/30 04:53:25;;;;;;;6.35;4.55;;;;;;;-144.32;100.00;68061.97;10177904;29;20460;-77
2023/07/30 04:58:27;;;;;;;5.95;4.88;;;;;;;-144.32;100.00;68061.97;10197748;29;21039;-80
2023/07/30 05:03:27;;;;;;;6.05;4.80;;;;;;;-144.32;100.00;68061.97;10218445;28;20044;-81
2023/07/30 05:08:28;;;;;;;5.35;4.57;;;;;;;-144.32;100.00;68061.97;10211500;28;20044;-81
2023/07/30 05:13:28;;;;;;;4.18;3.63;;;;;;;-144.32;100.00;68061.97;10212673;29;20047;-82
2023/07/30 05:18:29;;;;;;;6.32;5.03;;;;;;;-144.32;100.00;68061.97;10216700;29;20546;-82
2023/07/30 05:23:29;;;;;;;6.93;4.93;;;;;;;-144.32;100.00;68061.97;10230942;28;20054;-82
2023/07/30 05:28:30;;;;;;;4.07;3.67;;;;;;;-144.32;100.00;68061.97;10223453;29;20052;-81
2023/07/30 05:33:30;;;;;;;4.30;3.70;;;;;;;-144.32;100.00;68061.97;10214981;29;20103;-83
2023/07/30 05:38:31;;;;;;;4.63;3.33;;;;;;;-144.32;100.00;68061.97;10192695;29;20055;-81
2023/07/30 05:43:33;;;;;;;4.20;3.08;;;;;;;-144.32;100.00;68061.97;10211141;29;20047;-80
2023/07/30 05:48:34;;;;;;;3.15;2.67;;;;;;;-144.32;100.00;68061.97;10210996;29;20055;-80
2023/07/30 05:53:34;;;;;;;2.83;2.60;;;;;;;-144.32;100.00;68061.97;10219795;29;20031;-79
2023/07/30 05:58:34;;;;;;;3.60;2.30;;;;;;;-144.32;100.00;68061.97;10227793;29;20054;-81
2023/07/30 06:03:35;;;;;;;3.90;3.03;;;;;;;-144.32;100.00;68061.97;10209940;28;20043;-81
2023/07/30 06:08:35;;;;;;;3.60;2.40;;;;;;;-144.32;100.00;68061.97;10208367;28;20043;-83
2023/07/30 06:13:37;;;;;;;2.38;2.17;;;;;;;-144.32;100.00;68061.97;10211960;29;20091;-82
2023/07/30 06:18:37;;;;;;;2.97;2.58;;;;;;;-144.32;100.00;68061.97;10213256;28;20048;-81
2023/07/30 06:23:38;;;;;;;2.60;2.25;;;;;;;-144.32;100.00;68061.97;10211042;29;20571;-81
2023/07/30 06:28:38;;;;;;;3.35;2.45;;;;;;;-144.32;100.00;68061.97;10230460;29;20107;-82
2023/07/30 06:33:39;;;;;;;3.45;2.63;;;;;;;-144.32;100.00;68061.97;10238454;29;20053;-81
2023/07/30 06:38:39;;;;;;;2.25;2.05;;;;;;;-144.32;100.00;68061.97;10217250;29;20047;-79
2023/07/30 06:43:40;;;;;;;2.33;1.85;;;;;;;-144.32;100.00;68061.97;10207914;29;20494;-79
2023/07/30 06:48:41;;;;;;;2.67;2.42;;;;;;;-144.32;100.00;68061.97;10177796;29;20047;-78
2023/07/30 06:53:42;;;;;;;3.92;2.40;;;;;;;-144.32;100.00;68061.97;10204321;29;20046;-79
2023/07/30 06:58:42;;;;;;;3.03;2.30;;;;;;;-144.32;100.00;68061.97;10206898;29;20067;-78
2023/07/30 07:03:42;;;;;;;2.33;2.08;;;;;;;-144.32;100.00;68061.97;10201630;29;20058;-79
2023/07/30 07:08:43;;;;;;;2.40;2.20;;;;;;;-144.32;100.00;68061.97;10200882;28;20069;-77
2023/07/30 07:13:43;;;;;;;2.47;1.98;;;;;;;-144.32;100.00;68061.97;10206511;29;20039;-81
2023/07/30 07:18:44;;;;;;;3.88;2.40;;;;;;;-144.32;100.00;68061.97;10207236;28;20063;-81
2023/07/30 07:23:44;;;;;;;2.30;2.05;;;;;;;-144.32;100.00;68061.97;10203798;28;20149;-79
2023/07/30 07:28:45;;;;;;;2.22;2.00;;;;;;;-144.32;100.00;68061.97;10203516;28;20625;-79
2023/07/30 07:33:45;;;;;;;2.88;2.63;;;;;;;-144.32;100.00;68061.97;10201744;29;20047;-77
2023/07/30 07:38:47;;;;;;;2.97;2.00;;;;;;;-144.32;100.00;68061.97;10201588;28;20974;-78
2023/07/30 07:43:48;;;;;;;2.55;2.35;;;;;;;-144.32;100.00;68061.97;10203687;28;20052;-79
2023/07/30 07:48:48;;;;;;;3.97;2.30;;;;;;;-144.32;100.00;68061.97;10181506;28;20055;-77
2023/07/30 07:53:48;;;;;;;2.10;1.90;;;;;;;-144.32;100.00;68061.97;10208153;28;20074;-77
2023/07/30 07:58:51;;;;;;;2.80;2.13;;;;;;;-144.32;100.00;68061.97;10210059;29;20835;-78
2023/07/30 08:03:52;;;;;;;4.03;2.10;;;;;;;-144.32;100.00;68061.97;10215323;29;20039;-81
2023/07/30 08:08:53;;;;;;;2.83;2.42;;;;;;;-144.32;100.00;68061.97;10223637;29;20051;-78
2023/07/30 08:13:53;;;;;;;2.88;2.60;;;;;;;-144.32;100.00;68061.97;10218705;28;20544;-79
2023/07/30 08:18:54;;;;;;;3.10;2.40;;;;;;;-144.32;100.00;68061.97;10196292;28;20377;-80
2023/07/30 08:23:55;;;;;;;2.42;2.20;;;;;;;-144.32;100.00;68061.97;10200330;28;20048;-79
2023/07/30 08:28:55;;;;;;;2.55;2.35;;;;;;;-144.32;100.00;68061.97;10195290;29;20044;-78
2023/07/30 08:33:57;;;;;;;3.45;2.40;;;;;;;-144.32;100.00;68061.97;10180788;29;20397;-79
2023/07/30 08:38:58;;;;;;;2.60;2.40;;;;;;;-144.32;100.00;68061.97;10190898;28;20051;-81
2023/07/30 08:43:59;;;;;;;3.85;2.35;;;;;;;-144.32;100.00;68061.97;10204636;28;20051;-79
2023/07/30 08:48:59;;;;;;;2.50;2.30;;;;;;;-144.32;100.00;68061.97;10203308;29;20052;-79
2023/07/30 08:54:01;;;;;;;3.92;2.45;;;;;;;-144.32;100.00;68061.97;10188821;29;20101;-79
2023/07/30 08:59:04;;;;;;;3.75;2.60;;;;;;;-144.32;100.00;68061.97;10208363;29;20653;-79
2023/07/30 09:04:06;;;;;;;3.10;2.55;;;;;;;-144.32;100.00;68061.97;10207555;28;20039;-82
2023/07/30 09:09:09;;;;;;;2.67;2.43;;;;;;;-144.32;100.00;68061.97;10214843;28;20951;-81
2023/07/30 09:14:09;;;;;;;2.55;2.35;;;;;;;-144.32;100.00;68061.97;10190155;29;20083;-81
2023/07/30 09:19:17;;;;;;;2.40;2.20;;;;;;;-144.32;100.00;68061.97;10204998;28;20039;-81
2023/07/30 09:24:21;;;;;;;2.67;2.35;;;;;;;-144.32;100.00;68061.97;10206802;29;20050;-79
2023/07/30 09:29:22;;;;;;;3.42;2.72;;;;;;;-144.32;100.00;68061.97;10208079;28;20047;-79
2023/07/30 09:34:25;;;;;;;3.13;2.38;;;;;;;-144.32;100.00;68061.97;10187805;28;20862;-80
2023/07/30 09:39:26;;;;;;;3.15;2.08;;;;;;;-144.32;100.00;68061.97;10201568;28;20039;-79
2023/07/30 09:44:27;;;;;;;2.53;1.90;;;;;;;-144.32;100.00;68061.97;10206916;28;20137;-79
2023/07/30 09:49:27;;;;;;;2.50;2.30;;;;;;;-144.32;100.00;68061.97;10212584;28;20047;-78
2023/07/30 09:54:29;;;;;;;2.20;1.95;;;;;;;-144.32;100.00;68061.97;10209452;29;20091;-81
2023/07/30 09:59:30;;;;;;;2.43;2.23;;;;;;;-144.32;100.00;68061.97;10210811;28;20392;-79
2023/07/30 10:04:31;;;;;;;2.17;1.75;;;;;;;-144.32;100.00;68061.97;10206638;29;20044;-78
2023/07/30 10:09:38;;;;;;;2.35;1.73;;;;;;;-144.32;100.00;68061.97;10210733;28;20050;-80
2023/07/30 10:14:39;;;;;;;2.25;1.70;;;;;;;-144.32;100.00;68061.97;10214589;28;20119;-79
2023/07/30 10:19:39;;;;;;;5.35;1.80;;;;;;;-144.32;100.00;68061.97;10220648;29;20058;-78
2023/07/30 10:24:41;;;;;;;2.03;1.83;;;;;;;-144.32;100.00;68061.97;10205866;28;20054;-77
2023/07/30 10:29:41;;;;;;;2.30;2.00;;;;;;;-144.32;100.00;68061.97;10177190;28;20135;-78
2023/07/30 10:34:46;;;;;;;2.22;2.03;;;;;;;-144.32;100.00;68061.97;10210114;28;20053;-78
2023/07/30 10:39:50;;;;;;;3.05;2.42;;;;;;;-144.32;100.00;68061.97;10213866;28;20192;-78
2023/07/30 10:44:50;;;;;;;3.30;2.38;;;;;;;-144.32;100.00;68061.97;10206912;28;20047;-78
2023/07/30 10:49:52;;;;;;;2.58;1.38;;;;;;;-144.32;100.00;68061.97;10205338;28;20050;-78
2023/07/30 10:55:00;;;;;;;2.38;2.17;;;;;;;-144.32;100.00;68061.97;10207009;28;20133;-80
2023/07/30 11:00:02;;;;;;;2.17;2.00;;;;;;;-144.32;100.00;68061.97;10217605;28;20083;-80
2023/07/30 11:05:13;;;;;;;2.28;2.08;;;;;;;-144.32;100.00;68061.97;10184435;29;20055;-77
2023/07/30 11:10:14;;;;;;;2.55;2.35;;;;;;;-144.32;100.00;68061.97;10209457;29;20151;-81
2023/07/30 11:15:14;;;;;;;2.65;2.45;;;;;;;-144.32;100.00;68061.97;10205093;29;20552;-79
2023/07/30 11:20:26;;;;;;;2.33;2.13;;;;;;;-144.32;100.00;68061.97;10200885;28;20054;-78
2023/07/30 11:25:27;;;;;;;3.83;3.33;;;;;;;-144.32;100.00;68061.97;10187163;29;20047;-76
2023/07/30 11:30:28;;;;;;;4.28;3.70;;;;;;;-144.32;100.00;68061.97;10204402;28;20079;-79
2023/07/30 11:35:29;;;;;;;2.30;2.10;;;;;;;-144.32;100.00;68061.97;10204322;28;20143;-79
2023/07/30 11:40:29;;;;;;;2.90;2.45;;;;;;;-144.32;100.00;68061.97;10206331;28;20049;-79
2023/07/30 11:45:30;;;;;;;2.10;1.85;;;;;;;-144.32;100.00;68061.97;10194950;29;20192;-78
2023/07/30 11:50:48;;;;;;;3.33;2.20;;;;;;;-144.32;100.00;68061.97;10182418;29;20080;-78
2023/07/30 11:55:49;;;;;;;3.53;2.65;;;;;;;-144.32;100.00;68061.97;10166559;29;20050;-76
2023/07/30 12:00:49;;;;;;;2.35;2.08;;;;;;;-144.32;100.00;68061.97;10198241;28;20070;-77
2023/07/30 12:05:50;;;;;;;2.50;2.25;;;;;;;-144.32;100.00;68061.97;10200961;28;20443;-79
2023/07/30 12:10:52;;;;;;;4.93;3.05;;;;;;;-144.32;100.00;68061.97;10202037;29;20055;-79
2023/07/30 12:15:53;;;;;;;2.83;2.20;;;;;;;-144.32;100.00;68061.97;10204918;28;20658;-82
2023/07/30 12:20:56;;;;;;;2.60;2.40;;;;;;;-144.32;100.00;68061.97;10208119;28;20067;-81
2023/07/30 12:25:56;;;;;;;;;;;;;;;-144.32;100.00;68061.97;10192352;29;20052;-77
2023/07/30 12:30:56;;;;;;;2.83;2.07;;;;;;;-144.32;100.00;68061.97;10213946;28;19937;-79
2023/07/30 12:35:57;;;;;;;3.70;2.08;;;;;;;-144.32;100.00;68061.97;10202967;28;20153;-80
2023/07/30 12:40:57;;;;;;;2.53;2.33;;;;;;;-144.32;100.00;68061.97;10183811;29;20078;-79
2023/07/30 12:45:58;;;;;;;2.35;1.88;;;;;;;-144.32;100.00;68061.97;10202521;29;20063;-77
2023/07/30 12:50:58;;;;;;;6.50;4.93;;;;;;;-144.32;100.00;68061.97;10210160;29;20067;-79
2023/07/30 12:55:59;;;;;;;3.13;2.78;;;;;;;-144.32;100.00;68061.97;10199434;29;20060;-78
2023/07/30 13:00:59;;;;;;;2.38;2.00;;;;;;;-144.32;100.00;68061.97;10205764;28;20063;-79
2023/07/30 13:06:00;;;;;;;3.85;2.53;;;;;;;-144.32;100.00;68061.97;10208471;28;20044;-81
2023/07/30 13:11:00;;;;;;;2.70;2.00;;;;;;;-144.32;100.00;68061.97;10206988;28;20063;-79
2023/07/30 13:16:01;;;;;;;2.88;2.13;;;;;;;-144.32;100.00;68061.97;10189951;28;20044;-80
2023/07/30 13:21:01;;;;;;;3.17;2.03;;;;;;;-144.32;100.00;68061.97;10188461;28;20058;-77
2023/07/30 13:26:03;;;;;;;2.72;1.90;;;;;;;-144.32;100.00;68061.97;10197800;28;20050;-79
2023/07/30 13:31:03;;;;;;;2.10;1.73;;;;;;;-144.32;100.00;68061.97;10205555;28;20054;-77
2023/07/30 13:36:05;;;;;;;2.75;2.05;;;;;;;-144.32;100.00;68061.97;10210358;28;20055;-75
2023/07/30 13:41:06;;;;;;;2.30;2.03;;;;;;;-144.32;100.00;68061.97;10190732;28;20077;-82
2023/07/30 13:46:07;;;;;;;2.05;1.83;;;;;;;-144.32;100.00;68061.97;10209658;28;21123;-77
2023/07/30 13:51:07;;;;;;;2.58;2.05;;;;;;;-144.32;100.00;68061.97;10193315;28;20044;-77
2023/07/30 13:56:08;;;;;;;2.88;2.03;;;;;;;-144.32;100.00;68061.97;10189841;29;20043;-78
2023/07/30 14:01:09;;;;;;;1.98;1.73;;;;;;;-144.32;100.00;68061.97;10221481;28;20080;-77
2023/07/30 14:06:10;;;;;;;2.33;1.73;;;;;;;-144.32;100.00;68061.97;10215080;28;20036;-78
2023/07/30 14:11:11;;;;;;;2.53;1.90;;;;;;;-144.32;100.00;68061.97;10209251;29;20051;-78
2023/07/30 14:16:11;;;;;;;5.10;2.13;;;;;;;-144.32;100.00;68061.97;10212967;28;20054;-79
2023/07/30 14:21:13;;;;;;;2.13;1.92;;;;;;;-144.32;100.00;68061.97;10174378;29;20043;-78
2023/07/30 14:26:13;;;;;;;2.93;1.80;;;;;;;-144.32;100.00;68061.97;10204584;29;20040;-83
2023/07/30 14:31:14;;;;;;;1.90;1.30;;;;;;;-144.32;100.00;68061.97;10201131;29;20043;-77
2023/07/30 14:36:15;;;;;;;3.10;2.25;;;;;;;-144.32;100.00;68061.97;10210094;28;20855;-78
2023/07/30 14:41:18;;;;;;;3.67;1.60;;;;;;;-144.32;100.00;68061.97;10208239;28;20035;-80
2023/07/30 14:46:19;;;;;;;1.58;1.45;;;;;;;-144.32;100.00;68061.97;10207351;28;20055;-76
2023/07/30 14:51:19;;;;;;;2.13;1.35;;;;;;;-144.32;100.00;68061.97;10201330;28;20488;-76
2023/07/30 14:56:20;;;;;;;1.73;1.30;;;;;;;-144.32;100.00;68061.97;10199945;28;20043;-79
2023/07/30 15:01:22;;;;;;;1.40;1.17;;;;;;;-144.32;100.00;68061.97;10216241;28;20041;-79
2023/07/30 15:06:24;;;;;;;;;;;;;;;-144.32;100.00;68061.97;10210631;29;20047;-79
2023/07/30 15:11:25;;;;;;;1.52;1.17;;;;;;;-144.32;100.00;68061.97;10207364;29;19926;-80
2023/07/30 15:16:25;;;;;;;2.22;1.50;;;;;;;-144.32;100.00;68061.97;10218106;28;20091;-79
2023/07/30 15:21:26;;;;;;;2.55;1.50;;;;;;;-144.32;100.00;68061.97;10184181;28;20039;-80
2023/07/30 15:26:26;;;;;;;2.03;1.30;;;;;;;-144.32;100.00;68061.97;10213988;29;20144;-76
2023/07/30 15:31:27;;;;;;;2.17;1.50;;;;;;;-144.32;100.00;68061.97;10201256;29;20055;-76
2023/07/30 15:36:27;;;;;;;1.58;1.30;;;;;;;-144.32;100.00;68061.97;10168520;29;20047;-78
2023/07/30 15:41:28;;;;;;;4.10;1.40;;;;;;;-144.32;100.00;68061.97;10199862;29;20484;-78
2023/07/30 15:46:28;;;;;;;2.67;1.77;;;;;;;-144.32;100.00;68061.97;10196899;28;20055;-76
2023/07/30 15:51:29;;;;;;;4.45;1.88;;;;;;;-144.32;100.00;68061.97;10193685;28;20105;-75
2023/07/30 15:56:29;;;;;;;3.65;1.80;;;;;;;-144.32;100.00;68061.97;10203048;28;20110;-74
2023/07/30 16:01:30;;;;;;;1.83;1.58;;;;;;;-144.32;100.00;68061.97;10202146;28;20047;-76
2023/07/30 16:06:30;;;;;;;3.83;2.00;;;;;;;-144.32;100.00;68061.97;10191684;28;20503;-75
2023/07/30 16:11:33;;;;;;;3.53;2.30;;;;;;;-144.32;100.00;68061.97;10198420;29;20039;-75
2023/07/30 16:16:35;;;;;;;;;;;;;;;-144.32;100.00;68061.97;10201137;28;20051;-80
2023/07/30 16:21:36;;;;;;;3.00;1.47;;;;;;;-144.32;100.00;68061.97;10198332;28;19980;-77
2023/07/30 16:26:36;;;;;;;2.42;1.70;;;;;;;-144.32;100.00;68061.97;10205636;28;20337;-76
2023/07/30 16:31:37;;;;;;;2.33;1.48;;;;;;;-144.32;100.00;68061.97;10197064;29;20047;-77
2023/07/30 16:36:38;;;;;;;3.08;1.77;;;;;;;-144.32;100.00;68061.97;10201658;28;20047;-76
2023/07/30 16:41:39;;;;;;;2.53;2.00;;;;;;;-144.32;100.00;68061.97;10185687;28;20227;-77
2023/07/30 16:46:40;;;;;;;3.80;1.90;;;;;;;-144.32;100.00;68061.97;10181968;28;20055;-77
2023/07/30 16:51:41;;;;;;;3.67;1.77;;;;;;;-144.32;100.00;68061.97;10199320;28;20519;-78
2023/07/30 16:56:42;;;;;;;3.85;1.90;;;;;;;-144.32;100.00;68061.97;10210407;28;20050;-77
2023/07/30 17:01:43;;;;;;;3.42;1.60;;;;;;;-144.32;100.00;68061.97;10202176;28;20058;-76
2023/07/30 17:06:43;;;;;;;2.35;1.48;;;;;;;-144.32;100.00;68061.97;10215800;28;20120;-77
2023/07/30 17:11:44;;;;;;;3.53;1.67;;;;;;;-144.32;100.00;68061.97;10194750;28;20079;-78
2023/07/30 17:16:45;;;;;;;4.68;1.83;;;;;;;-144.32;100.00;68061.97;10213057;28;20042;-80
2023/07/30 17:21:45;;;;;;;2.30;1.48;;;;;;;-144.32;100.00;68061.97;10216946;28;20737;-79
2023/07/30 17:26:46;;;;;;;4.20;1.95;;;;;;;-144.32;100.00;68061.97;10199470;28;20055;-80
2023/07/30 17:31:46;;;;;;;3.50;1.73;;;;;;;-144.32;100.00;68061.97;10219057;28;20126;-79
2023/07/30 17:36:47;;;;;;;3.33;1.80;;;;;;;-144.32;100.00;68061.97;10217285;28;20059;-79
2023/07/30 17:41:47;;;;;;;4.18;1.90;;;;;;;-144.32;100.00;68061.97;10217648;28;20048;-78
2023/07/30 17:46:48;;;;;;;5.18;1.80;;;;;;;-144.32;100.00;68061.97;10210981;28;20075;-78
2023/07/30 17:51:51;;;;;;;1.98;1.58;;;;;;;-144.32;100.00;68061.97;10212137;28;20055;-80
2023/07/30 17:56:52;;;;;;;3.83;1.83;;;;;;;-144.32;100.00;68061.97;10212572;28;20416;-78
2023/07/30 18:01:52;;;;;;;4.20;1.98;;;;;;;-144.32;100.00;68061.97;10200094;29;20059;-79
2023/07/30 18:06:53;;;;;;;3.95;2.10;;;;;;;-144.32;100.00;68061.97;10232229;28;20224;-78
2023/07/30 18:11:53;;;;;;;3.55;2.30;;;;;;;-144.32;100.00;68061.97;10190822;28;20055;-79
2023/07/30 18:16:54;;;;;;;2.88;2.08;;;;;;;-144.32;100.00;68061.97;10193854;29;20055;-77
2023/07/30 18:21:55;;;;;;;2.95;1.90;;;;;;;-144.32;100.00;68061.97;10194429;28;20051;-78
2023/07/30 18:26:57;;;;;;;4.65;1.90;;;;;;;-144.32;100.00;68061.97;10219734;28;20040;-80
2023/07/30 18:32:08;;;;;;;3.30;2.92;;;;;;;-144.32;100.00;68061.97;10208969;29;20082;-78
2023/07/30 18:37:08;;;;;;;3.38;1.90;;;;;;;-144.32;100.00;68061.97;10195812;28;20056;-80
2023/07/30 18:42:09;;;;;;;2.47;2.05;;;;;;;-144.32;100.00;68061.97;10204353;28;21191;-78
2023/07/30 18:47:09;;;;;;;3.58;1.70;;;;;;;-144.32;100.00;68061.97;10201523;29;20051;-80
2023/07/30 18:52:10;;;;;;;4.25;1.88;;;;;;;-144.32;100.00;68061.97;10191201;28;20043;-79
2023/07/30 18:57:11;;;;;;;2.42;2.10;;;;;;;-144.32;100.00;68061.97;10204509;29;20131;-75
2023/07/30 19:02:14;;;;;;;3.40;2.88;;;;;;;-144.32;100.00;68061.97;10201190;29;20139;-79
2023/07/30 19:07:15;;;;;;;4.30;2.55;;;;;;;-144.32;100.00;68061.97;10184268;28;20039;-78
2023/07/30 19:12:15;;;;;;;5.20;2.40;;;;;;;-144.32;100.00;68061.97;10187061;28;20051;-79
2023/07/30 19:17:21;;;;;;;3.05;2.25;;;;;;;-144.32;100.00;68061.97;10185654;29;20083;-78
2023/07/30 19:22:22;;;;;;;3.00;1.95;;;;;;;-144.32;100.00;68061.97;10206910;28;20078;-79
2023/07/30 19:27:23;;;;;;;4.60;2.13;;;;;;;-144.32;100.00;68061.97;10213254;28;20047;-79
2023/07/30 19:32:24;;;;;;;3.28;2.17;;;;;;;-144.32;100.00;68061.97;10203360;29;20123;-78
2023/07/30 19:37:24;;;;;;;3.85;2.17;;;;;;;-144.32;100.00;68061.97;10205539;29;20051;-78
2023/07/30 19:42:25;;;;;;;5.30;2.10;;;;;;;-144.32;100.00;68061.97;10202813;28;20154;-81
2023/07/30 19:47:26;;;;;;;4.82;2.28;;;;;;;-144.32;100.00;68061.97;10204464;28;20040;-81
2023/07/30 19:52:30;;;;;;;3.35;2.10;;;;;;;-144.32;100.00;68061.97;10214183;28;20054;-80
2023/07/30 19:57:31;;;;;;;2.25;2.00;;;;;;;-144.32;100.00;68061.97;10214951;28;20052;-79
2023/07/30 20:02:32;;;;;;;4.45;2.20;;;;;;;-144.32;100.00;68061.97;10219312;29;20123;-81
2023/07/30 20:07:33;;;;;;;2.75;2.20;;;;;;;-144.32;100.00;68061.97;10214122;28;20141;-81
2023/07/30 20:12:33;;;;;;;3.05;2.33;;;;;;;-144.32;100.00;68061.97;10199534;28;20437;-80
2023/07/30 20:17:34;;;;;;;4.20;2.60;;;;;;;-144.32;100.00;68061.97;10200003;29;20051;-80
2023/07/30 20:22:34;;;;;;;3.05;2.55;;;;;;;-144.32;100.00;68061.97;10210270;29;20035;-78
2023/07/30 20:27:34;;;;;;;4.00;2.75;;;;;;;-144.32;100.00;68061.97;10209084;28;20039;-80
2023/07/30 20:32:38;;;;;;;2.60;2.40;;;;;;;-144.32;100.00;68061.97;10183372;28;20559;-79
2023/07/30 20:37:39;;;;;;;5.35;2.75;;;;;;;-144.32;100.00;68061.97;10192802;28;20736;-80
2023/07/30 20:42:39;;;;;;;2.70;2.28;;;;;;;-144.32;100.00;68061.97;10190116;28;20039;-79
2023/07/30 20:47:40;;;;;;;2.50;2.20;;;;;;;-144.32;100.00;68061.97;10192699;28;20044;-79
2023/07/30 20:52:41;;;;;;;3.60;2.03;;;;;;;-144.32;100.00;68061.97;10203743;28;20083;-79
2023/07/30 20:57:42;;;;;;;3.05;2.20;;;;;;;-144.32;100.00;68061.97;10207016;28;20511;-77
2023/07/30 21:02:43;;;;;;;2.72;2.00;;;;;;;-144.32;100.00;68061.97;10197852;28;20054;-81
2023/07/30 21:07:43;;;;;;;3.80;2.40;;;;;;;-144.32;100.00;68061.97;10209783;28;20787;-81
2023/07/30 21:12:44;;;;;;;4.72;2.30;;;;;;;-144.32;100.00;68061.97;10204169;29;20081;-81
2023/07/30 21:17:44;;;;;;;3.97;2.10;;;;;;;-144.32;100.00;68061.97;10183075;28;20102;-79
2023/07/30 21:22:45;;;;;;;2.40;2.05;;;;;;;-144.32;100.00;68061.97;10196267;28;20051;-81
2023/07/30 21:27:47;;;;;;;3.42;2.17;;;;;;;-144.32;100.00;68061.97;10183511;29;20044;-80
2023/07/30 21:32:47;;;;;;;2.60;1.77;;;;;;;-144.32;100.00;68061.97;10206863;28;20051;-80
2023/07/30 21:37:47;;;;;;;3.65;2.88;;;;;;;-144.32;100.00;68061.97;10198078;29;20547;-80
2023/07/30 21:42:48;;;;;;;3.28;2.20;;;;;;;-144.32;100.00;68061.97;10224575;28;20119;-79
2023/07/30 21:47:52;;;;;;;3.38;1.75;;;;;;;-144.32;100.00;68061.97;10205837;28;20382;-76
2023/07/30 21:52:55;;;;;;;3.83;1.80;;;;;;;-144.32;100.00;68061.97;10211300;28;20047;-77
2023/07/30 21:57:55;;;;;;;3.30;1.98;;;;;;;-144.32;100.00;68061.97;10207991;28;20144;-77
2023/07/30 22:02:57;;;;;;;2.05;1.70;;;;;;;-144.32;100.00;68061.97;10209192;28;20132;-79
2023/07/30 22:07:58;;;;;;;4.40;2.03;;;;;;;-144.32;100.00;68061.97;10210350;28;20043;-79
2023/07/30 22:12:58;;;;;;;2.92;1.90;;;;;;;-144.32;100.00;68061.97;10205804;28;20047;-78
2023/07/30 22:17:58;;;;;;;4.15;1.83;;;;;;;-144.32;100.00;68061.97;10210807;28;20054;-79
2023/07/30 22:22:59;;;;;;;4.65;2.22;;;;;;;-144.32;100.00;68061.97;10216080;28;20052;-78
2023/07/30 22:28:00;;;;;;;4.30;1.88;;;;;;;-144.32;100.00;68061.97;10208668;29;20047;-80
2023/07/30 22:33:00;;;;;;;2.55;1.65;;;;;;;-144.32;100.00;68061.97;10214691;28;20134;-78